sensor_id;sensor_type;location;lat;lon;timestamp;pressure;altitude;pressure_sealevel;temperature;humidity
5296;BME280;2670;42.720;23.336;2023-02-14T00:01:39;-22433.09;;;-0.27;100.00
5296;BME280;2670;42.720;23.336;2023-02-14T00:04:05;-22432.06;;;-0.30;100.00
5296;BME280;2670;42.720;23.336;2023-02-14T00:06:35;-22431.75;;;-0.31;100.00
5296;BME280;2670;42.720;23.336;2023-02-14T00:09:03;-22429.50;;;-0.39;100.00
5296;BME280;2670;42.720;23.336;2023-02-14T00:11:30;-22427.25;;;-0.46;100.00
5296;BME280;2670;42.720;23.336;2023-02-14T00:13:58;-22427.41;;;-0.46;100.00
5296;BME280;2670;42.720;23.336;2023-02-14T00:16:43;-22427.13;;;-0.47;100.00
5296;BME280;2670;42.720;23.336;2023-02-14T00:19:11;-22426.06;;;-0.51;100.00
5296;BME280;2670;42.720;23.336;2023-02-14T00:21:39;-22427.13;;;-0.47;100.00
5296;BME280;2670;42.720;23.336;2023-02-14T00:24:09;-22427.88;;;-0.44;100.00
5296;BME280;2670;42.720;23.336;2023-02-14T00:26:37;-22427.41;;;-0.46;100.00
5296;BME280;2670;42.720;23.336;2023-02-14T00:29:06;-22432.66;;;-0.28;100.00
5296;BME280;2670;42.720;23.336;2023-02-14T00:31:34;-22433.72;;;-0.24;100.00
5296;BME280;2670;42.720;23.336;2023-02-14T00:34:01;-22433.72;;;-0.24;100.00
5296;BME280;2670;42.720;23.336;2023-02-14T00:36:29;-22438.50;;;-0.08;100.00
5296;BME280;2670;42.720;23.336;2023-02-14T00:38:56;-22438.50;;;-0.08;100.00
5296;BME280;2670;42.720;23.336;2023-02-14T00:41:22;-22443.59;;;0.09;100.00
5296;BME280;2670;42.720;23.336;2023-02-14T00:43:51;-22443.75;;;0.10;100.00
5296;BME280;2670;42.720;23.336;2023-02-14T00:46:20;-22443.91;;;0.10;100.00
5296;BME280;2670;42.720;23.336;2023-02-14T00:48:47;-22444.50;;;0.12;100.00
5296;BME280;2670;42.720;23.336;2023-02-14T00:51:14;-22450.63;;;0.33;100.00
5296;BME280;2670;42.720;23.336;2023-02-14T00:53:43;-22454.22;;;0.45;100.00
5296;BME280;2670;42.720;23.336;2023-02-14T00:56:10;-22460.97;;;0.68;100.00
5296;BME280;2670;42.720;23.336;2023-02-14T00:58:37;-22465.16;;;0.83;100.00
5296;BME280;2670;42.720;23.336;2023-02-14T01:01:04;-22467.25;;;0.90;100.00
5296;BME280;2670;42.720;23.336;2023-02-14T01:03:33;-22465.59;;;0.84;100.00
5296;BME280;2670;42.720;23.336;2023-02-14T01:06:00;-22466.66;;;0.88;100.00
5296;BME280;2670;42.720;23.336;2023-02-14T01:08:26;-22467.41;;;0.90;100.00
5296;BME280;2670;42.720;23.336;2023-02-14T01:10:53;-22469.50;;;0.97;100.00
5296;BME280;2670;42.720;23.336;2023-02-14T01:13:20;-22473.69;;;1.12;100.00
5296;BME280;2670;42.720;23.336;2023-02-14T01:15:50;-22472.47;;;1.08;100.00
5296;BME280;2670;42.720;23.336;2023-02-14T01:18:18;-22473.09;;;1.10;100.00
5296;BME280;2670;42.720;23.336;2023-02-14T01:20:46;-22472.78;;;1.09;100.00
5296;BME280;2670;42.720;23.336;2023-02-14T01:23:13;-22473.09;;;1.10;100.00
5296;BME280;2670;42.720;23.336;2023-02-14T01:25:39;-22475.34;;;1.17;100.00
5296;BME280;2670;42.720;23.336;2023-02-14T01:28:06;-22475.94;;;1.19;100.00
5296;BME280;2670;42.720;23.336;2023-02-14T01:30:33;-22475.78;;;1.19;100.00
5296;BME280;2670;42.720;23.336;2023-02-14T01:33:01;-22475.94;;;1.19;100.00
5296;BME280;2670;42.720;23.336;2023-02-14T01:35:28;-22475.19;;;1.17;100.00
5296;BME280;2670;42.720;23.336;2023-02-14T01:37:56;-22474.72;;;1.15;100.00
5296;BME280;2670;42.720;23.336;2023-02-14T01:40:23;-22473.38;;;1.11;100.00
5296;BME280;2670;42.720;23.336;2023-02-14T01:42:49;-22473.69;;;1.12;100.00
5296;BME280;2670;42.720;23.336;2023-02-14T01:45:18;-22472.19;;;1.07;100.00
5296;BME280;2670;42.720;23.336;2023-02-14T01:47:46;-22475.78;;;1.19;100.00
5296;BME280;2670;42.720;23.336;2023-02-14T01:50:19;-22474.44;;;1.14;100.00
5296;BME280;2670;42.720;23.336;2023-02-14T01:52:51;-22475.94;;;1.19;100.00
5296;BME280;2670;42.720;23.336;2023-02-14T01:55:22;-22476.81;;;1.22;100.00
5296;BME280;2670;42.720;23.336;2023-02-14T01:57:52;-22480.13;;;1.34;100.00
5296;BME280;2670;42.720;23.336;2023-02-14T02:00:21;-22474.59;;;1.15;100.00
5296;BME280;2670;42.720;23.336;2023-02-14T02:03:06;-22480.72;;;1.36;100.00
5296;BME280;2670;42.720;23.336;2023-02-14T02:05:34;-22478.75;;;1.29;100.00
5296;BME280;2670;42.720;23.336;2023-02-14T02:08:02;-22476.53;;;1.21;100.00
5296;BME280;2670;42.720;23.336;2023-02-14T02:10:30;-22475.34;;;1.17;100.00
5296;BME280;2670;42.720;23.336;2023-02-14T02:13:01;-22475.03;;;1.16;100.00
5296;BME280;2670;42.720;23.336;2023-02-14T02:15:30;-22476.06;;;1.20;100.00
5296;BME280;2670;42.720;23.336;2023-02-14T02:18:05;-22476.22;;;1.20;100.00
5296;BME280;2670;42.720;23.336;2023-02-14T02:24:13;-22477.13;;;1.23;100.00
5296;BME280;2670;42.720;23.336;2023-02-14T02:27:04;-22476.81;;;1.22;100.00
5296;BME280;2670;42.720;23.336;2023-02-14T02:32:56;-22473.09;;;1.10;100.00
5296;BME280;2670;42.720;23.336;2023-02-14T02:38:39;-22477.41;;;1.24;100.00
5296;BME280;2670;42.720;23.336;2023-02-14T02:41:16;-22477.28;;;1.24;100.00
5296;BME280;2670;42.720;23.336;2023-02-14T02:43:51;-22475.78;;;1.19;100.00
5296;BME280;2670;42.720;23.336;2023-02-14T02:46:23;-22477.13;;;1.23;100.00
5296;BME280;2670;42.720;23.336;2023-02-14T02:49:13;-22481.16;;;1.37;100.00
5296;BME280;2670;42.720;23.336;2023-02-14T02:52:07;-22479.06;;;1.30;100.00
5296;BME280;2670;42.720;23.336;2023-02-14T02:54:58;-22476.97;;;1.23;100.00
5296;BME280;2670;42.720;23.336;2023-02-14T02:57:29;-22473.97;;;1.13;100.00
5296;BME280;2670;42.720;23.336;2023-02-14T03:00:01;-22477.88;;;1.26;100.00
5296;BME280;2670;42.720;23.336;2023-02-14T03:02:30;-22474.88;;;1.16;100.00
5296;BME280;2670;42.720;23.336;2023-02-14T03:05:01;-22474.28;;;1.14;100.00
5296;BME280;2670;42.720;23.336;2023-02-14T03:07:34;-22476.81;;;1.22;100.00
5296;BME280;2670;42.720;23.336;2023-02-14T03:10:05;-22474.28;;;1.14;100.00
5296;BME280;2670;42.720;23.336;2023-02-14T03:13:03;-22471.28;;;1.04;100.00
5296;BME280;2670;42.720;23.336;2023-02-14T03:15:46;-22471.00;;;1.03;100.00
5296;BME280;2670;42.720;23.336;2023-02-14T03:18:27;-22472.78;;;1.09;100.00
5296;BME280;2670;42.720;23.336;2023-02-14T03:21:25;-22473.09;;;1.10;100.00
5296;BME280;2670;42.720;23.336;2023-02-14T03:23:57;-22472.78;;;1.09;100.00
5296;BME280;2670;42.720;23.336;2023-02-14T03:26:32;-22471.44;;;1.04;100.00
5296;BME280;2670;42.720;23.336;2023-02-14T03:29:07;-22466.50;;;0.87;100.00
5296;BME280;2670;42.720;23.336;2023-02-14T03:31:45;-22470.09;;;0.99;100.00
5296;BME280;2670;42.720;23.336;2023-02-14T03:34:22;-22471.59;;;1.05;100.00
5296;BME280;2670;42.720;23.336;2023-02-14T03:36:55;-22469.78;;;0.98;100.00
5296;BME280;2670;42.720;23.336;2023-02-14T03:39:29;-22473.38;;;1.11;100.00
5296;BME280;2670;42.720;23.336;2023-02-14T03:42:00;-22471.75;;;1.05;100.00
5296;BME280;2670;42.720;23.336;2023-02-14T03:44:31;-22472.03;;;1.06;100.00
5296;BME280;2670;42.720;23.336;2023-02-14T03:47:01;-22469.78;;;0.98;100.00
5296;BME280;2670;42.720;23.336;2023-02-14T03:49:33;-22471.44;;;1.04;100.00
5296;BME280;2670;42.720;23.336;2023-02-14T03:52:02;-22472.63;;;1.08;100.00
5296;BME280;2670;42.720;23.336;2023-02-14T03:54:33;-22469.03;;;0.96;100.00
5296;BME280;2670;42.720;23.336;2023-02-14T03:57:06;-22469.66;;;0.98;100.00
5296;BME280;2670;42.720;23.336;2023-02-14T03:59:37;-22468.91;;;0.95;100.00
5296;BME280;2670;42.720;23.336;2023-02-14T04:02:06;-22468.91;;;0.95;100.00
5296;BME280;2670;42.720;23.336;2023-02-14T04:04:36;-22470.53;;;1.01;100.00
5296;BME280;2670;42.720;23.336;2023-02-14T04:07:09;-22469.03;;;0.96;100.00
5296;BME280;2670;42.720;23.336;2023-02-14T04:09:40;-22468.59;;;0.94;100.00
5296;BME280;2670;42.720;23.336;2023-02-14T04:12:08;-22467.84;;;0.92;100.00
5296;BME280;2670;42.720;23.336;2023-02-14T04:14:35;-22468.75;;;0.95;100.00
5296;BME280;2670;42.720;23.336;2023-02-14T04:17:03;-22470.84;;;1.02;100.00
5296;BME280;2670;42.720;23.336;2023-02-14T04:19:48;-22468.91;;;0.95;100.00
5296;BME280;2670;42.720;23.336;2023-02-14T04:22:15;-22466.34;;;0.87;100.00
5296;BME280;2670;42.720;23.336;2023-02-14T04:24:43;-22468.59;;;0.94;100.00
5296;BME280;2670;42.720;23.336;2023-02-14T04:27:10;-22467.69;;;0.91;100.00
5296;BME280;2670;42.720;23.336;2023-02-14T04:29:38;-22469.78;;;0.98;100.00
5296;BME280;2670;42.720;23.336;2023-02-14T04:32:07;-22470.09;;;0.99;100.00
5296;BME280;2670;42.720;23.336;2023-02-14T04:34:40;-22468.75;;;0.95;100.00
5296;BME280;2670;42.720;23.336;2023-02-14T04:37:07;-22466.81;;;0.88;100.00
5296;BME280;2670;42.720;23.336;2023-02-14T04:39:34;-22468.28;;;0.93;100.00
5296;BME280;2670;42.720;23.336;2023-02-14T04:42:03;-22468.59;;;0.94;100.00
5296;BME280;2670;42.720;23.336;2023-02-14T04:44:30;-22467.69;;;0.91;100.00
5296;BME280;2670;42.720;23.336;2023-02-14T04:46:58;-22468.28;;;0.93;100.00
5296;BME280;2670;42.720;23.336;2023-02-14T04:49:25;-22467.53;;;0.91;100.00
5296;BME280;2670;42.720;23.336;2023-02-14T04:51:52;-22465.59;;;0.84;100.00
5296;BME280;2670;42.720;23.336;2023-02-14T04:54:19;-22466.19;;;0.86;100.00
5296;BME280;2670;42.720;23.336;2023-02-14T04:56:46;-22464.84;;;0.82;100.00
5296;BME280;2670;42.720;23.336;2023-02-14T04:59:14;-22467.09;;;0.89;100.00
5296;BME280;2670;42.720;23.336;2023-02-14T05:01:41;-22466.34;;;0.87;100.00
5296;BME280;2670;42.720;23.336;2023-02-14T05:04:08;-22468.16;;;0.93;100.00
5296;BME280;2670;42.720;23.336;2023-02-14T05:06:35;-22469.19;;;0.96;100.00
5296;BME280;2670;42.720;23.336;2023-02-14T05:09:02;-22467.25;;;0.90;100.00
5296;BME280;2670;42.720;23.336;2023-02-14T05:11:29;-22467.53;;;0.91;100.00
5296;BME280;2670;42.720;23.336;2023-02-14T05:13:56;-22465.31;;;0.83;100.00
5296;BME280;2670;42.720;23.336;2023-02-14T05:16:24;-22466.06;;;0.86;100.00
5296;BME280;2670;42.720;23.336;2023-02-14T05:18:51;-22467.69;;;0.91;100.00
5296;BME280;2670;42.720;23.336;2023-02-14T05:21:27;-22467.41;;;0.90;100.00
5296;BME280;2670;42.720;23.336;2023-02-14T05:23:57;-22467.69;;;0.91;100.00
5296;BME280;2670;42.720;23.336;2023-02-14T05:26:24;-22466.81;;;0.88;100.00
5296;BME280;2670;42.720;23.336;2023-02-14T05:28:51;-22465.00;;;0.82;100.00
5296;BME280;2670;42.720;23.336;2023-02-14T05:31:17;-22467.69;;;0.91;100.00
5296;BME280;2670;42.720;23.336;2023-02-14T05:33:46;-22468.75;;;0.95;100.00
5296;BME280;2670;42.720;23.336;2023-02-14T05:36:12;-22469.50;;;0.97;100.00
5296;BME280;2670;42.720;23.336;2023-02-14T05:38:39;-22468.00;;;0.92;100.00
5296;BME280;2670;42.720;23.336;2023-02-14T05:41:06;-22469.19;;;0.96;100.00
5296;BME280;2670;42.720;23.336;2023-02-14T05:43:32;-22467.09;;;0.89;100.00
5296;BME280;2670;42.720;23.336;2023-02-14T05:45:59;-22471.13;;;1.03;100.00
5296;BME280;2670;42.720;23.336;2023-02-14T05:48:26;-22471.00;;;1.03;100.00
5296;BME280;2670;42.720;23.336;2023-02-14T05:50:54;-22470.69;;;1.02;100.00
5296;BME280;2670;42.720;23.336;2023-02-14T05:53:22;-22472.03;;;1.06;100.00
5296;BME280;2670;42.720;23.336;2023-02-14T05:55:48;-22472.34;;;1.07;100.00
5296;BME280;2670;42.720;23.336;2023-02-14T05:58:15;-22475.47;;;1.18;100.00
5296;BME280;2670;42.720;23.336;2023-02-14T06:00:42;-22475.63;;;1.18;100.00
5296;BME280;2670;42.720;23.336;2023-02-14T06:03:09;-22474.59;;;1.15;100.00
5296;BME280;2670;42.720;23.336;2023-02-14T06:05:35;-22477.41;;;1.24;100.00
5296;BME280;2670;42.720;23.336;2023-02-14T06:08:03;-22476.06;;;1.20;100.00
5296;BME280;2670;42.720;23.336;2023-02-14T06:10:30;-22477.41;;;1.24;100.00
5296;BME280;2670;42.720;23.336;2023-02-14T06:12:57;-22478.16;;;1.27;100.00
5296;BME280;2670;42.720;23.336;2023-02-14T06:15:24;-22478.03;;;1.27;100.00
5296;BME280;2670;42.720;23.336;2023-02-14T06:17:51;-22481.47;;;1.38;100.00
5296;BME280;2670;42.720;23.336;2023-02-14T06:20:18;-22478.75;;;1.29;100.00
5296;BME280;2670;42.720;23.336;2023-02-14T06:22:45;-22479.22;;;1.31;100.00
5296;BME280;2670;42.720;23.336;2023-02-14T06:25:13;-22480.88;;;1.36;100.00
5296;BME280;2670;42.720;23.336;2023-02-14T06:27:40;-22485.50;;;1.52;100.00
5296;BME280;2670;42.720;23.336;2023-02-14T06:30:08;-22482.97;;;1.43;100.00
5296;BME280;2670;42.720;23.336;2023-02-14T06:39:19;-22492.97;;;1.78;100.00
5296;BME280;2670;42.720;23.336;2023-02-14T06:41:47;-22491.03;;;1.71;100.00
5296;BME280;2670;42.720;23.336;2023-02-14T06:44:14;-22493.13;;;1.78;100.00
5296;BME280;2670;42.720;23.336;2023-02-14T06:46:41;-22491.63;;;1.73;100.00
5296;BME280;2670;42.720;23.336;2023-02-14T06:49:08;-22493.41;;;1.79;100.00
5296;BME280;2670;42.720;23.336;2023-02-14T06:51:35;-22493.88;;;1.81;100.00
5296;BME280;2670;42.720;23.336;2023-02-14T06:54:02;-22493.72;;;1.80;100.00
5296;BME280;2670;42.720;23.336;2023-02-14T06:56:29;-22496.28;;;1.89;100.00
5296;BME280;2670;42.720;23.336;2023-02-14T06:58:57;-22497.00;;;1.91;100.00
5296;BME280;2670;42.720;23.336;2023-02-14T07:01:23;-22497.63;;;1.93;100.00
5296;BME280;2670;42.720;23.336;2023-02-14T07:03:50;-22498.22;;;1.95;100.00
5296;BME280;2670;42.720;23.336;2023-02-14T07:06:17;-22499.09;;;1.98;100.00
5296;BME280;2670;42.720;23.336;2023-02-14T07:08:44;-22498.50;;;1.96;100.00
5296;BME280;2670;42.720;23.336;2023-02-14T07:11:10;-22501.34;;;2.06;100.00
5296;BME280;2670;42.720;23.336;2023-02-14T07:13:37;-22502.41;;;2.10;100.00
5296;BME280;2670;42.720;23.336;2023-02-14T07:16:05;-22500.75;;;2.04;100.00
5296;BME280;2670;42.720;23.336;2023-02-14T07:18:32;-22504.19;;;2.16;100.00
5296;BME280;2670;42.720;23.336;2023-02-14T07:20:59;-22504.03;;;2.15;100.00
5296;BME280;2670;42.720;23.336;2023-02-14T07:23:26;-22504.03;;;2.15;100.00
5296;BME280;2670;42.720;23.336;2023-02-14T07:25:53;-22504.94;;;2.18;100.00
5296;BME280;2670;42.720;23.336;2023-02-14T07:28:20;-22509.28;;;2.33;100.00
5296;BME280;2670;42.720;23.336;2023-02-14T07:30:47;-22508.38;;;2.30;100.00
5296;BME280;2670;42.720;23.336;2023-02-14T07:33:15;-22505.38;;;2.20;100.00
5296;BME280;2670;42.720;23.336;2023-02-14T07:35:42;-22508.97;;;2.32;100.00
5296;BME280;2670;42.720;23.336;2023-02-14T07:38:08;-22510.63;;;2.38;100.00
5296;BME280;2670;42.720;23.336;2023-02-14T07:40:35;-22508.66;;;2.31;100.00
5296;BME280;2670;42.720;23.336;2023-02-14T07:43:02;-22507.19;;;2.26;100.00
5296;BME280;2670;42.720;23.336;2023-02-14T07:45:29;-22508.22;;;2.30;100.00
5296;BME280;2670;42.720;23.336;2023-02-14T07:47:55;-22507.78;;;2.28;100.00
5296;BME280;2670;42.720;23.336;2023-02-14T07:50:28;-22508.22;;;2.30;100.00
5296;BME280;2670;42.720;23.336;2023-02-14T07:52:55;-22511.50;;;2.41;100.00
5296;BME280;2670;42.720;23.336;2023-02-14T07:55:22;-22510.03;;;2.36;100.00
5296;BME280;2670;42.720;23.336;2023-02-14T07:57:50;-22510.91;;;2.39;100.00
5296;BME280;2670;42.720;23.336;2023-02-14T08:00:18;-22511.06;;;2.39;100.00
5296;BME280;2670;42.720;23.336;2023-02-14T08:02:44;-22509.72;;;2.35;100.00
5296;BME280;2670;42.720;23.336;2023-02-14T08:05:11;-22510.03;;;2.36;100.00
5296;BME280;2670;42.720;23.336;2023-02-14T08:07:40;-22512.72;;;2.45;100.00
5296;BME280;2670;42.720;23.336;2023-02-14T08:10:07;-22511.50;;;2.41;100.00
5296;BME280;2670;42.720;23.336;2023-02-14T08:12:34;-22507.31;;;2.27;100.00
5296;BME280;2670;42.720;23.336;2023-02-14T08:15:19;-22509.88;;;2.35;100.00
5296;BME280;2670;42.720;23.336;2023-02-14T08:18:03;-22511.66;;;2.41;100.00
5296;BME280;2670;42.720;23.336;2023-02-14T08:20:29;-22510.78;;;2.38;100.00
5296;BME280;2670;42.720;23.336;2023-02-14T08:22:57;-22511.38;;;2.40;100.00
5296;BME280;2670;42.720;23.336;2023-02-14T08:25:24;-22509.88;;;2.35;100.00
5296;BME280;2670;42.720;23.336;2023-02-14T08:27:51;-22511.97;;;2.42;100.00
5296;BME280;2670;42.720;23.336;2023-02-14T08:30:19;-22512.25;;;2.43;100.00
5296;BME280;2670;42.720;23.336;2023-02-14T08:32:46;-22514.81;;;2.52;100.00
5296;BME280;2670;42.720;23.336;2023-02-14T08:35:13;-22515.41;;;2.54;100.00
5296;BME280;2670;42.720;23.336;2023-02-14T08:37:39;-22515.53;;;2.55;100.00
5296;BME280;2670;42.720;23.336;2023-02-14T08:40:09;-22516.91;;;2.59;100.00
5296;BME280;2670;42.720;23.336;2023-02-14T08:42:35;-22516.91;;;2.59;100.00
5296;BME280;2670;42.720;23.336;2023-02-14T08:45:03;-22518.97;;;2.66;100.00
5296;BME280;2670;42.720;23.336;2023-02-14T08:47:30;-22517.50;;;2.61;100.00
5296;BME280;2670;42.720;23.336;2023-02-14T08:50:00;-22519.13;;;2.67;100.00
5296;BME280;2670;42.720;23.336;2023-02-14T08:52:27;-22518.09;;;2.63;100.00
5296;BME280;2670;42.720;23.336;2023-02-14T08:54:55;-22515.41;;;2.54;100.00
5296;BME280;2670;42.720;23.336;2023-02-14T08:57:23;-22518.84;;;2.66;100.00
5296;BME280;2670;42.720;23.336;2023-02-14T08:59:52;-22519.59;;;2.68;100.00
5296;BME280;2670;42.720;23.336;2023-02-14T09:02:18;-22519.28;;;2.67;100.00
5296;BME280;2670;42.720;23.336;2023-02-14T09:04:45;-22518.38;;;2.64;100.00
5296;BME280;2670;42.720;23.336;2023-02-14T09:07:12;-22517.50;;;2.61;100.00
5296;BME280;2670;42.720;23.336;2023-02-14T09:09:39;-22521.53;;;2.75;100.00
5296;BME280;2670;42.720;23.336;2023-02-14T09:12:08;-22520.03;;;2.70;100.00
5296;BME280;2670;42.720;23.336;2023-02-14T09:14:37;-22519.28;;;2.67;100.00
5296;BME280;2670;42.720;23.336;2023-02-14T09:17:06;-22519.72;;;2.69;100.00
5296;BME280;2670;42.720;23.336;2023-02-14T09:19:34;-22518.97;;;2.66;100.00
5296;BME280;2670;42.720;23.336;2023-02-14T09:22:05;-22522.88;;;2.80;100.00
5296;BME280;2670;42.720;23.336;2023-02-14T09:24:33;-22521.97;;;2.77;100.00
5296;BME280;2670;42.720;23.336;2023-02-14T09:27:00;-22519.59;;;2.68;100.00
5296;BME280;2670;42.720;23.336;2023-02-14T09:29:27;-22518.84;;;2.66;100.00
5296;BME280;2670;42.720;23.336;2023-02-14T09:31:56;-22518.84;;;2.66;100.00
5296;BME280;2670;42.720;23.336;2023-02-14T09:34:24;-22517.63;;;2.62;100.00
5296;BME280;2670;42.720;23.336;2023-02-14T09:36:52;-22516.16;;;2.57;100.00
5296;BME280;2670;42.720;23.336;2023-02-14T09:39:36;-22518.53;;;2.65;100.00
5296;BME280;2670;42.720;23.336;2023-02-14T09:42:35;-22519.44;;;2.68;100.00
5296;BME280;2670;42.720;23.336;2023-02-14T09:45:09;-22518.53;;;2.65;100.00
5296;BME280;2670;42.720;23.336;2023-02-14T09:47:40;-22517.50;;;2.61;100.00
5296;BME280;2670;42.720;23.336;2023-02-14T09:50:16;-22515.25;;;2.54;100.00
5296;BME280;2670;42.720;23.336;2023-02-14T09:52:46;-22514.94;;;2.53;100.00
5296;BME280;2670;42.720;23.336;2023-02-14T09:55:16;-22513.91;;;2.49;100.00
5296;BME280;2670;42.720;23.336;2023-02-14T09:57:54;-22513.59;;;2.48;100.00
5296;BME280;2670;42.720;23.336;2023-02-14T10:00:28;-22516.16;;;2.57;100.00
5296;BME280;2670;42.720;23.336;2023-02-14T10:03:10;-22516.75;;;2.59;100.00
5296;BME280;2670;42.720;23.336;2023-02-14T10:05:44;-22514.50;;;2.51;100.00
5296;BME280;2670;42.720;23.336;2023-02-14T10:08:26;-22511.06;;;2.39;100.00
5296;BME280;2670;42.720;23.336;2023-02-14T10:11:02;-22513.47;;;2.47;100.00
5296;BME280;2670;42.720;23.336;2023-02-14T10:13:36;-22512.84;;;2.45;100.00
5296;BME280;2670;42.720;23.336;2023-02-14T10:16:24;-22513.59;;;2.48;100.00
5296;BME280;2670;42.720;23.336;2023-02-14T10:18:57;-22513.16;;;2.46;100.00
5296;BME280;2670;42.720;23.336;2023-02-14T10:21:31;-22513.47;;;2.47;100.00
5296;BME280;2670;42.720;23.336;2023-02-14T10:24:02;-22512.84;;;2.45;100.00
5296;BME280;2670;42.720;23.336;2023-02-14T10:26:35;-22514.94;;;2.53;100.00
5296;BME280;2670;42.720;23.336;2023-02-14T10:29:06;-22514.50;;;2.51;100.00
5296;BME280;2670;42.720;23.336;2023-02-14T10:31:37;-22514.66;;;2.52;100.00
5296;BME280;2670;42.720;23.336;2023-02-14T10:34:14;-22515.41;;;2.54;100.00
5296;BME280;2670;42.720;23.336;2023-02-14T10:37:02;-22514.81;;;2.52;100.00
5296;BME280;2670;42.720;23.336;2023-02-14T10:39:46;-22517.50;;;2.61;100.00
5296;BME280;2670;42.720;23.336;2023-02-14T10:42:22;-22516.00;;;2.56;100.00
5296;BME280;2670;42.720;23.336;2023-02-14T10:45:00;-22515.84;;;2.56;100.00
5296;BME280;2670;42.720;23.336;2023-02-14T10:47:35;-22515.53;;;2.55;100.00
5296;BME280;2670;42.720;23.336;2023-02-14T10:50:14;-22515.53;;;2.55;100.00
5296;BME280;2670;42.720;23.336;2023-02-14T10:52:49;-22516.00;;;2.56;100.00
5296;BME280;2670;42.720;23.336;2023-02-14T10:55:26;-22515.69;;;2.55;100.00
5296;BME280;2670;42.720;23.336;2023-02-14T10:58:01;-22512.56;;;2.44;100.00
5296;BME280;2670;42.720;23.336;2023-02-14T11:00:33;-22513.16;;;2.46;100.00
5296;BME280;2670;42.720;23.336;2023-02-14T11:03:02;-22511.81;;;2.42;100.00
5296;BME280;2670;42.720;23.336;2023-02-14T11:05:34;-22513.47;;;2.47;100.00
5296;BME280;2670;42.720;23.336;2023-02-14T11:08:11;-22509.88;;;2.35;100.00
5296;BME280;2670;42.720;23.336;2023-02-14T11:10:39;-22512.56;;;2.44;100.00
5296;BME280;2670;42.720;23.336;2023-02-14T11:13:26;-22514.66;;;2.52;100.00
5296;BME280;2670;42.720;23.336;2023-02-14T11:15:55;-22514.34;;;2.50;100.00
5296;BME280;2670;42.720;23.336;2023-02-14T11:18:24;-22514.34;;;2.50;100.00
5296;BME280;2670;42.720;23.336;2023-02-14T11:21:03;-22513.31;;;2.47;100.00
5296;BME280;2670;42.720;23.336;2023-02-14T11:23:35;-22512.41;;;2.44;100.00
5296;BME280;2670;42.720;23.336;2023-02-14T11:26:06;-22515.69;;;2.55;100.00
5296;BME280;2670;42.720;23.336;2023-02-14T11:28:34;-22514.66;;;2.52;100.00
5296;BME280;2670;42.720;23.336;2023-02-14T11:31:01;-22517.19;;;2.60;100.00
5296;BME280;2670;42.720;23.336;2023-02-14T11:33:33;-22516.00;;;2.56;100.00
5296;BME280;2670;42.720;23.336;2023-02-14T11:36:09;-22516.91;;;2.59;100.00
5296;BME280;2670;42.720;23.336;2023-02-14T11:38:37;-22515.84;;;2.56;100.00
5296;BME280;2670;42.720;23.336;2023-02-14T11:41:06;-22521.06;;;2.73;100.00
5296;BME280;2670;42.720;23.336;2023-02-14T11:43:35;-22521.06;;;2.73;99.59
5296;BME280;2670;42.720;23.336;2023-02-14T11:46:26;-22518.97;;;2.66;100.00
5296;BME280;2670;42.720;23.336;2023-02-14T11:48:59;-22521.06;;;2.73;99.85
5296;BME280;2670;42.720;23.336;2023-02-14T11:51:46;-22521.06;;;2.73;99.72
5296;BME280;2670;42.720;23.336;2023-02-14T11:54:57;-22524.38;;;2.85;98.33
5296;BME280;2670;42.720;23.336;2023-02-14T11:57:26;-22526.16;;;2.91;97.93
5296;BME280;2670;42.720;23.336;2023-02-14T11:59:57;-22525.56;;;2.89;97.22
5296;BME280;2670;42.720;23.336;2023-02-14T12:02:30;-22528.69;;;2.99;96.46
5296;BME280;2670;42.720;23.336;2023-02-14T12:05:00;-22530.78;;;3.07;96.10
5296;BME280;2670;42.720;23.336;2023-02-14T12:07:31;-22534.66;;;3.20;95.75
5296;BME280;2670;42.720;23.336;2023-02-14T12:10:17;-22536.59;;;3.27;94.80
5296;BME280;2670;42.720;23.336;2023-02-14T12:12:55;-22538.69;;;3.34;94.49
5296;BME280;2670;42.720;23.336;2023-02-14T12:15:29;-22535.25;;;3.22;94.13
5296;BME280;2670;42.720;23.336;2023-02-14T12:18:15;-22539.16;;;3.35;94.50
5296;BME280;2670;42.720;23.336;2023-02-14T12:20:48;-22537.19;;;3.29;94.02
5296;BME280;2670;42.720;23.336;2023-02-14T12:23:23;-22538.41;;;3.33;94.53
5296;BME280;2670;42.720;23.336;2023-02-14T12:25:55;-22539.00;;;3.35;94.23
5296;BME280;2670;42.720;23.336;2023-02-14T12:28:30;-22541.38;;;3.43;94.25
5296;BME280;2670;42.720;23.336;2023-02-14T12:30:59;-22545.13;;;3.56;93.79
5296;BME280;2670;42.720;23.336;2023-02-14T12:33:25;-22544.50;;;3.54;93.34
5296;BME280;2670;42.720;23.336;2023-02-14T12:35:59;-22544.22;;;3.53;93.28
5296;BME280;2670;42.720;23.336;2023-02-14T12:38:39;-22546.00;;;3.59;93.07
5296;BME280;2670;42.720;23.336;2023-02-14T12:41:21;-22542.88;;;3.48;93.65
5296;BME280;2670;42.720;23.336;2023-02-14T12:43:52;-22542.44;;;3.46;93.15
5296;BME280;2670;42.720;23.336;2023-02-14T12:49:27;-22542.72;;;3.47;93.45
5296;BME280;2670;42.720;23.336;2023-02-14T12:52:02;-22540.63;;;3.40;94.31
5296;BME280;2670;42.720;23.336;2023-02-14T12:54:48;-22542.88;;;3.48;93.36
5296;BME280;2670;42.720;23.336;2023-02-14T12:57:29;-22540.94;;;3.41;94.17
5296;BME280;2670;42.720;23.336;2023-02-14T13:00:11;-22542.88;;;3.48;94.39
5296;BME280;2670;42.720;23.336;2023-02-14T13:03:30;-22543.47;;;3.50;94.14
5296;BME280;2670;42.720;23.336;2023-02-14T13:06:07;-22540.03;;;3.38;95.09
5296;BME280;2670;42.720;23.336;2023-02-14T13:08:48;-22542.44;;;3.46;95.05
5296;BME280;2670;42.720;23.336;2023-02-14T13:11:25;-22542.88;;;3.48;95.28
5296;BME280;2670;42.720;23.336;2023-02-14T13:14:08;-22540.78;;;3.41;95.12
5296;BME280;2670;42.720;23.336;2023-02-14T13:16:43;-22540.50;;;3.40;95.99
5296;BME280;2670;42.720;23.336;2023-02-14T13:19:19;-22542.88;;;3.48;95.83
5296;BME280;2670;42.720;23.336;2023-02-14T13:21:50;-22541.69;;;3.44;96.10
5296;BME280;2670;42.720;23.336;2023-02-14T13:24:21;-22538.69;;;3.34;96.61
5296;BME280;2670;42.720;23.336;2023-02-14T13:26:53;-22540.94;;;3.41;96.67
5296;BME280;2670;42.720;23.336;2023-02-14T13:29:22;-22539.75;;;3.37;96.82
5296;BME280;2670;42.720;23.336;2023-02-14T13:31:50;-22538.69;;;3.34;97.26
5296;BME280;2670;42.720;23.336;2023-02-14T13:34:24;-22538.41;;;3.33;97.78
5296;BME280;2670;42.720;23.336;2023-02-14T13:36:54;-22540.03;;;3.38;97.80
5296;BME280;2670;42.720;23.336;2023-02-14T13:39:26;-22540.19;;;3.39;97.51
5296;BME280;2670;42.720;23.336;2023-02-14T13:41:56;-22537.81;;;3.31;98.21